Cusick, WA

1:36 PM PST on February 01, 2015 (GMT -0800)
Sandpoint | Change Station
CLOSE
Current Station
Airport
Location: Sandpoint,
Elevation: 2126 ft
Nearby Weather Stations
Active Advisory: Winter Weather Advisory Active Notice: Record Report

Elev 2126 ft 48.30 °N, 116.56 °W | Updated 21 minutes ago

Overcast
Overcast
32 °F
Feels Like 32 °F
N
0
Wind Variable Wind from North

Today
High -- | Low -- °F
--% Chance of Precip.
Yesterday
High -- | Low -- °F
Precip. -- in
7:18 AM 4:48 PM
Waxing Gibbous, 96% visible
Pressure 30.06 in
Visibility 1.5 miles
Clouds Overcast 1600 ft
Dew Point 32 °F
Humidity 100%
Rainfall 0.00 in
Snow Depth Not available.
UV 1 out of 12
Pollen .40 out of 12
Air Quality Not available.
Flu Activity Not available.
METAR KSZT 012115Z AUTO 00000KT 1 1/2SM -SN OVC016 00/00 A3006 RMK AO2

More Conditions Fewer Conditions

Pressure 30.06 in
Visibility 1.5 miles
Clouds Overcast 1600 ft
Dew Point 32 °F
Humidity 100%
Rainfall 0.00 in
Snow Depth Not available.
UV 1 out of 12
Pollen .40 out of 12
Air Quality Not available.
Flu Activity Not available.
METAR KSZT 012115Z AUTO 00000KT 1 1/2SM -SN OVC016 00/00 A3006 RMK AO2

More Conditions Fewer Conditions

10-Day Weather Forecast

Almanac

Astronomy

Feb. 01, 2015 Rise Set
Actual Time
Civil Twilight
Nautical Twilight
Astronomical Twilight
Moon
Length of Visible Light
Length of Day
Tomorrow will be .
, % of the Moon is Illuminated

Today's Extremes

State Highs State Lows

Community

WunderPhotos

Upload Photos

1,792,553 photos uploaded!

WunderBlogs® & News

Nearby

Air Quality

  Air Quality AQ Index Pollutant
Not available.

Snow Depth

Station Depth Elevation

Earthquake Activity

City Distance Mag. Time & Date
Minimum magnitude displayed is 2.5.

Coastal Water Temperatures

Place Temperature

Nearby Weather Stations